sensor_id;sensor_type;location;lat;lon;timestamp;P1;durP1;ratioP1;P2;durP2;ratioP2
63690;SDS011;49837;57.280;27.070;2023-05-07T00:00:56;4.0;;;2.1;;
63690;SDS011;49837;57.280;27.070;2023-05-07T00:01:57;3.3;;;2.0;;
63690;SDS011;49837;57.280;27.070;2023-05-07T00:02:57;2.8;;;2.0;;
63690;SDS011;49837;57.280;27.070;2023-05-07T00:03:58;3.7;;;1.8;;
63690;SDS011;49837;57.280;27.070;2023-05-07T00:04:58;3.0;;;2.1;;
63690;SDS011;49837;57.280;27.070;2023-05-07T00:05:58;3.1;;;2.1;;
63690;SDS011;49837;57.280;27.070;2023-05-07T00:06:59;3.1;;;2.0;;
63690;SDS011;49837;57.280;27.070;2023-05-07T00:07:59;4.4;;;2.2;;
63690;SDS011;49837;57.280;27.070;2023-05-07T00:08:59;3.6;;;2.1;;
63690;SDS011;49837;57.280;27.070;2023-05-07T00:10:00;4.8;;;2.0;;
63690;SDS011;49837;57.280;27.070;2023-05-07T00:11:00;3.6;;;2.4;;
63690;SDS011;49837;57.280;27.070;2023-05-07T00:12:01;4.4;;;2.0;;
63690;SDS011;49837;57.280;27.070;2023-05-07T00:13:01;4.0;;;2.1;;
63690;SDS011;49837;57.280;27.070;2023-05-07T00:14:01;4.1;;;2.9;;
63690;SDS011;49837;57.280;27.070;2023-05-07T00:15:02;3.4;;;2.0;;
63690;SDS011;49837;57.280;27.070;2023-05-07T00:16:02;2.5;;;1.9;;
63690;SDS011;49837;57.280;27.070;2023-05-07T00:17:03;4.3;;;2.1;;
63690;SDS011;49837;57.280;27.070;2023-05-07T00:18:03;5.1;;;2.3;;
63690;SDS011;49837;57.280;27.070;2023-05-07T00:19:03;4.4;;;2.2;;
63690;SDS011;49837;57.280;27.070;2023-05-07T00:20:04;5.2;;;2.1;;
63690;SDS011;49837;57.280;27.070;2023-05-07T00:21:04;4.7;;;1.9;;
63690;SDS011;49837;57.280;27.070;2023-05-07T00:22:05;3.7;;;2.0;;
63690;SDS011;49837;57.280;27.070;2023-05-07T00:23:05;2.9;;;1.9;;
63690;SDS011;49837;57.280;27.070;2023-05-07T00:24:05;4.3;;;2.3;;
63690;SDS011;49837;57.280;27.070;2023-05-07T00:25:06;2.3;;;1.8;;
63690;SDS011;49837;57.280;27.070;2023-05-07T00:26:06;4.3;;;1.9;;
63690;SDS011;49837;57.280;27.070;2023-05-07T00:27:06;4.1;;;2.3;;
63690;SDS011;49837;57.280;27.070;2023-05-07T00:28:07;3.5;;;1.9;;
63690;SDS011;49837;57.280;27.070;2023-05-07T00:29:07;3.8;;;1.9;;
63690;SDS011;49837;57.280;27.070;2023-05-07T00:30:08;3.5;;;2.0;;
63690;SDS011;49837;57.280;27.070;2023-05-07T00:31:08;5.0;;;2.1;;
63690;SDS011;49837;57.280;27.070;2023-05-07T00:32:08;4.1;;;1.9;;
63690;SDS011;49837;57.280;27.070;2023-05-07T00:33:09;5.8;;;1.8;;
63690;SDS011;49837;57.280;27.070;2023-05-07T00:34:09;5.5;;;2.1;;
63690;SDS011;49837;57.280;27.070;2023-05-07T00:35:10;3.4;;;1.8;;
63690;SDS011;49837;57.280;27.070;2023-05-07T00:36:10;5.9;;;2.4;;
63690;SDS011;49837;57.280;27.070;2023-05-07T00:37:10;4.9;;;2.3;;
63690;SDS011;49837;57.280;27.070;2023-05-07T00:38:11;4.4;;;2.0;;
63690;SDS011;49837;57.280;27.070;2023-05-07T00:39:11;3.3;;;2.0;;
63690;SDS011;49837;57.280;27.070;2023-05-07T00:40:12;2.8;;;1.8;;
63690;SDS011;49837;57.280;27.070;2023-05-07T00:41:12;4.2;;;2.2;;
63690;SDS011;49837;57.280;27.070;2023-05-07T00:42:12;2.4;;;1.8;;
63690;SDS011;49837;57.280;27.070;2023-05-07T00:43:13;3.8;;;1.9;;
63690;SDS011;49837;57.280;27.070;2023-05-07T00:44:13;4.5;;;1.9;;
63690;SDS011;49837;57.280;27.070;2023-05-07T00:45:14;3.0;;;1.9;;
63690;SDS011;49837;57.280;27.070;2023-05-07T00:46:14;4.2;;;1.8;;
63690;SDS011;49837;57.280;27.070;2023-05-07T00:47:14;4.3;;;2.2;;
63690;SDS011;49837;57.280;27.070;2023-05-07T00:48:15;3.8;;;2.1;;
63690;SDS011;49837;57.280;27.070;2023-05-07T00:49:15;4.5;;;2.0;;
63690;SDS011;49837;57.280;27.070;2023-05-07T00:50:16;15.7;;;3.2;;
63690;SDS011;49837;57.280;27.070;2023-05-07T00:51:16;3.9;;;2.0;;
63690;SDS011;49837;57.280;27.070;2023-05-07T00:52:16;5.2;;;1.8;;
63690;SDS011;49837;57.280;27.070;2023-05-07T00:53:17;2.8;;;1.9;;
63690;SDS011;49837;57.280;27.070;2023-05-07T00:54:17;3.7;;;2.1;;
63690;SDS011;49837;57.280;27.070;2023-05-07T00:55:17;2.9;;;2.2;;
63690;SDS011;49837;57.280;27.070;2023-05-07T00:56:18;3.0;;;1.8;;
63690;SDS011;49837;57.280;27.070;2023-05-07T00:57:18;2.9;;;2.0;;
63690;SDS011;49837;57.280;27.070;2023-05-07T00:58:19;2.3;;;1.8;;
63690;SDS011;49837;57.280;27.070;2023-05-07T00:59:20;3.8;;;2.1;;
63690;SDS011;49837;57.280;27.070;2023-05-07T01:00:19;3.5;;;1.8;;
63690;SDS011;49837;57.280;27.070;2023-05-07T01:01:20;3.9;;;2.0;;
63690;SDS011;49837;57.280;27.070;2023-05-07T01:02:20;5.8;;;2.2;;
63690;SDS011;49837;57.280;27.070;2023-05-07T01:03:21;3.2;;;2.0;;
63690;SDS011;49837;57.280;27.070;2023-05-07T01:04:21;3.3;;;2.0;;
63690;SDS011;49837;57.280;27.070;2023-05-07T01:05:22;3.2;;;2.1;;
63690;SDS011;49837;57.280;27.070;2023-05-07T01:06:22;3.2;;;1.9;;
63690;SDS011;49837;57.280;27.070;2023-05-07T01:07:22;4.6;;;2.2;;
63690;SDS011;49837;57.280;27.070;2023-05-07T01:08:23;6.0;;;2.1;;
63690;SDS011;49837;57.280;27.070;2023-05-07T01:09:23;3.4;;;1.9;;
63690;SDS011;49837;57.280;27.070;2023-05-07T01:10:24;4.0;;;2.3;;
63690;SDS011;49837;57.280;27.070;2023-05-07T01:11:24;3.7;;;2.0;;
63690;SDS011;49837;57.280;27.070;2023-05-07T01:12:24;3.9;;;1.9;;
63690;SDS011;49837;57.280;27.070;2023-05-07T01:13:25;4.3;;;2.2;;
63690;SDS011;49837;57.280;27.070;2023-05-07T01:14:25;3.3;;;1.9;;
63690;SDS011;49837;57.280;27.070;2023-05-07T01:15:26;6.0;;;2.1;;
63690;SDS011;49837;57.280;27.070;2023-05-07T01:16:26;4.5;;;2.1;;
63690;SDS011;49837;57.280;27.070;2023-05-07T01:17:26;5.8;;;2.9;;
63690;SDS011;49837;57.280;27.070;2023-05-07T01:18:27;3.9;;;2.0;;
63690;SDS011;49837;57.280;27.070;2023-05-07T01:19:28;2.1;;;1.7;;
63690;SDS011;49837;57.280;27.070;2023-05-07T01:20:27;3.0;;;2.0;;
63690;SDS011;49837;57.280;27.070;2023-05-07T01:21:28;4.0;;;2.2;;
63690;SDS011;49837;57.280;27.070;2023-05-07T01:22:33;3.4;;;2.1;;
63690;SDS011;49837;57.280;27.070;2023-05-07T01:23:31;5.0;;;2.1;;
63690;SDS011;49837;57.280;27.070;2023-05-07T01:24:32;4.7;;;2.2;;
63690;SDS011;49837;57.280;27.070;2023-05-07T01:25:32;5.2;;;2.2;;
63690;SDS011;49837;57.280;27.070;2023-05-07T01:26:33;3.9;;;2.0;;
63690;SDS011;49837;57.280;27.070;2023-05-07T01:27:33;4.1;;;2.5;;
63690;SDS011;49837;57.280;27.070;2023-05-07T01:28:33;5.6;;;2.1;;
63690;SDS011;49837;57.280;27.070;2023-05-07T01:29:34;4.1;;;2.2;;
63690;SDS011;49837;57.280;27.070;2023-05-07T01:30:34;5.2;;;2.1;;
63690;SDS011;49837;57.280;27.070;2023-05-07T01:31:35;2.4;;;2.0;;
63690;SDS011;49837;57.280;27.070;2023-05-07T01:32:38;2.9;;;1.9;;
63690;SDS011;49837;57.280;27.070;2023-05-07T01:33:37;4.6;;;2.1;;
63690;SDS011;49837;57.280;27.070;2023-05-07T01:34:38;3.9;;;2.0;;
63690;SDS011;49837;57.280;27.070;2023-05-07T01:35:39;5.4;;;1.9;;
63690;SDS011;49837;57.280;27.070;2023-05-07T01:36:40;6.2;;;2.4;;
63690;SDS011;49837;57.280;27.070;2023-05-07T01:37:41;4.1;;;2.3;;
63690;SDS011;49837;57.280;27.070;2023-05-07T01:38:41;3.3;;;2.0;;
63690;SDS011;49837;57.280;27.070;2023-05-07T01:39:41;4.2;;;2.1;;
63690;SDS011;49837;57.280;27.070;2023-05-07T01:40:44;3.9;;;2.3;;
63690;SDS011;49837;57.280;27.070;2023-05-07T01:41:44;4.7;;;2.1;;
63690;SDS011;49837;57.280;27.070;2023-05-07T01:42:44;3.8;;;2.1;;
63690;SDS011;49837;57.280;27.070;2023-05-07T01:43:45;4.0;;;2.1;;
63690;SDS011;49837;57.280;27.070;2023-05-07T01:44:45;3.1;;;2.0;;
63690;SDS011;49837;57.280;27.070;2023-05-07T01:45:45;7.3;;;2.2;;
63690;SDS011;49837;57.280;27.070;2023-05-07T01:46:46;3.7;;;2.0;;
63690;SDS011;49837;57.280;27.070;2023-05-07T01:47:46;6.6;;;2.3;;
63690;SDS011;49837;57.280;27.070;2023-05-07T01:48:47;7.1;;;2.2;;
63690;SDS011;49837;57.280;27.070;2023-05-07T01:49:47;6.5;;;2.4;;
63690;SDS011;49837;57.280;27.070;2023-05-07T01:50:47;3.2;;;2.2;;
63690;SDS011;49837;57.280;27.070;2023-05-07T01:51:48;4.8;;;2.4;;
63690;SDS011;49837;57.280;27.070;2023-05-07T01:52:49;5.6;;;2.2;;
63690;SDS011;49837;57.280;27.070;2023-05-07T01:53:49;6.8;;;2.4;;
63690;SDS011;49837;57.280;27.070;2023-05-07T01:54:49;3.9;;;2.0;;
63690;SDS011;49837;57.280;27.070;2023-05-07T01:55:49;5.7;;;2.5;;
63690;SDS011;49837;57.280;27.070;2023-05-07T01:56:50;5.5;;;2.2;;
63690;SDS011;49837;57.280;27.070;2023-05-07T01:57:50;5.3;;;2.3;;
63690;SDS011;49837;57.280;27.070;2023-05-07T01:58:51;4.6;;;2.3;;
63690;SDS011;49837;57.280;27.070;2023-05-07T01:59:52;4.4;;;2.7;;
63690;SDS011;49837;57.280;27.070;2023-05-07T02:00:51;6.6;;;3.2;;
63690;SDS011;49837;57.280;27.070;2023-05-07T02:01:52;3.7;;;2.6;;
63690;SDS011;49837;57.280;27.070;2023-05-07T02:02:52;6.0;;;3.5;;
63690;SDS011;49837;57.280;27.070;2023-05-07T02:03:52;7.0;;;3.0;;
63690;SDS011;49837;57.280;27.070;2023-05-07T02:04:53;7.8;;;4.0;;
63690;SDS011;49837;57.280;27.070;2023-05-07T02:05:53;6.5;;;3.2;;
63690;SDS011;49837;57.280;27.070;2023-05-07T02:06:54;7.9;;;3.3;;
63690;SDS011;49837;57.280;27.070;2023-05-07T02:07:54;6.6;;;3.4;;
63690;SDS011;49837;57.280;27.070;2023-05-07T02:08:54;5.8;;;3.5;;
63690;SDS011;49837;57.280;27.070;2023-05-07T02:09:55;6.4;;;3.2;;
63690;SDS011;49837;57.280;27.070;2023-05-07T02:10:55;6.1;;;3.5;;
63690;SDS011;49837;57.280;27.070;2023-05-07T02:11:55;8.5;;;3.5;;
63690;SDS011;49837;57.280;27.070;2023-05-07T02:12:56;5.2;;;3.4;;
63690;SDS011;49837;57.280;27.070;2023-05-07T02:13:56;6.0;;;3.4;;
63690;SDS011;49837;57.280;27.070;2023-05-07T02:14:57;8.3;;;3.4;;
63690;SDS011;49837;57.280;27.070;2023-05-07T02:15:57;6.0;;;3.3;;
63690;SDS011;49837;57.280;27.070;2023-05-07T02:16:57;6.5;;;3.2;;
63690;SDS011;49837;57.280;27.070;2023-05-07T02:18:04;8.0;;;3.2;;
63690;SDS011;49837;57.280;27.070;2023-05-07T02:19:03;5.0;;;3.0;;
63690;SDS011;49837;57.280;27.070;2023-05-07T02:20:03;7.7;;;2.9;;
63690;SDS011;49837;57.280;27.070;2023-05-07T02:21:04;6.7;;;3.3;;
63690;SDS011;49837;57.280;27.070;2023-05-07T02:22:04;5.4;;;3.0;;
63690;SDS011;49837;57.280;27.070;2023-05-07T02:23:04;7.6;;;3.2;;
63690;SDS011;49837;57.280;27.070;2023-05-07T02:24:05;8.5;;;3.5;;
63690;SDS011;49837;57.280;27.070;2023-05-07T02:25:05;6.4;;;2.9;;
63690;SDS011;49837;57.280;27.070;2023-05-07T02:26:06;7.4;;;3.0;;
63690;SDS011;49837;57.280;27.070;2023-05-07T02:27:06;6.7;;;3.0;;
63690;SDS011;49837;57.280;27.070;2023-05-07T02:28:06;6.4;;;3.1;;
63690;SDS011;49837;57.280;27.070;2023-05-07T02:29:07;8.0;;;3.1;;
63690;SDS011;49837;57.280;27.070;2023-05-07T02:30:07;7.1;;;2.9;;
63690;SDS011;49837;57.280;27.070;2023-05-07T02:31:07;10.6;;;3.8;;
63690;SDS011;49837;57.280;27.070;2023-05-07T02:32:08;21.9;;;4.6;;
63690;SDS011;49837;57.280;27.070;2023-05-07T02:33:08;17.4;;;3.8;;
63690;SDS011;49837;57.280;27.070;2023-05-07T02:34:09;16.9;;;3.8;;
63690;SDS011;49837;57.280;27.070;2023-05-07T02:35:09;11.9;;;3.8;;
63690;SDS011;49837;57.280;27.070;2023-05-07T02:36:10;11.1;;;3.2;;
63690;SDS011;49837;57.280;27.070;2023-05-07T02:37:10;11.1;;;3.2;;
63690;SDS011;49837;57.280;27.070;2023-05-07T02:38:10;6.0;;;2.9;;
63690;SDS011;49837;57.280;27.070;2023-05-07T02:39:11;6.0;;;2.7;;
63690;SDS011;49837;57.280;27.070;2023-05-07T02:40:11;5.6;;;2.6;;
63690;SDS011;49837;57.280;27.070;2023-05-07T02:41:11;6.6;;;2.9;;
63690;SDS011;49837;57.280;27.070;2023-05-07T02:42:12;8.8;;;3.4;;
63690;SDS011;49837;57.280;27.070;2023-05-07T02:43:12;6.1;;;2.7;;
63690;SDS011;49837;57.280;27.070;2023-05-07T02:44:12;5.4;;;2.9;;
63690;SDS011;49837;57.280;27.070;2023-05-07T02:45:14;6.5;;;2.7;;
63690;SDS011;49837;57.280;27.070;2023-05-07T02:46:14;7.7;;;3.0;;
63690;SDS011;49837;57.280;27.070;2023-05-07T02:47:14;8.8;;;3.0;;
63690;SDS011;49837;57.280;27.070;2023-05-07T02:48:15;15.9;;;3.4;;
63690;SDS011;49837;57.280;27.070;2023-05-07T02:49:15;8.3;;;2.6;;
63690;SDS011;49837;57.280;27.070;2023-05-07T02:50:16;8.2;;;3.2;;
63690;SDS011;49837;57.280;27.070;2023-05-07T02:51:19;5.4;;;2.8;;
63690;SDS011;49837;57.280;27.070;2023-05-07T02:52:21;7.0;;;2.8;;
63690;SDS011;49837;57.280;27.070;2023-05-07T02:53:22;5.2;;;2.4;;
63690;SDS011;49837;57.280;27.070;2023-05-07T02:54:22;5.5;;;2.5;;
63690;SDS011;49837;57.280;27.070;2023-05-07T02:55:23;6.2;;;3.0;;
63690;SDS011;49837;57.280;27.070;2023-05-07T02:56:25;7.6;;;2.7;;
63690;SDS011;49837;57.280;27.070;2023-05-07T02:57:24;5.5;;;2.5;;
63690;SDS011;49837;57.280;27.070;2023-05-07T02:58:24;6.0;;;2.6;;
63690;SDS011;49837;57.280;27.070;2023-05-07T02:59:24;7.4;;;2.4;;
63690;SDS011;49837;57.280;27.070;2023-05-07T03:00:25;6.0;;;2.7;;
63690;SDS011;49837;57.280;27.070;2023-05-07T03:01:25;7.0;;;2.7;;
63690;SDS011;49837;57.280;27.070;2023-05-07T03:02:25;8.4;;;2.9;;
63690;SDS011;49837;57.280;27.070;2023-05-07T03:03:26;5.8;;;2.6;;
63690;SDS011;49837;57.280;27.070;2023-05-07T03:04:26;5.8;;;3.1;;
63690;SDS011;49837;57.280;27.070;2023-05-07T03:05:27;7.4;;;3.0;;
63690;SDS011;49837;57.280;27.070;2023-05-07T03:06:27;5.8;;;3.0;;
63690;SDS011;49837;57.280;27.070;2023-05-07T03:07:27;7.9;;;3.7;;
63690;SDS011;49837;57.280;27.070;2023-05-07T03:08:28;9.6;;;3.8;;
63690;SDS011;49837;57.280;27.070;2023-05-07T03:09:28;8.7;;;3.1;;
63690;SDS011;49837;57.280;27.070;2023-05-07T03:10:29;6.3;;;3.0;;
63690;SDS011;49837;57.280;27.070;2023-05-07T03:11:29;5.4;;;3.1;;
63690;SDS011;49837;57.280;27.070;2023-05-07T03:12:29;6.9;;;3.3;;
63690;SDS011;49837;57.280;27.070;2023-05-07T03:13:30;6.1;;;3.5;;
63690;SDS011;49837;57.280;27.070;2023-05-07T03:14:30;8.4;;;3.4;;
63690;SDS011;49837;57.280;27.070;2023-05-07T03:15:31;5.6;;;3.1;;
63690;SDS011;49837;57.280;27.070;2023-05-07T03:16:32;7.6;;;3.0;;
63690;SDS011;49837;57.280;27.070;2023-05-07T03:17:33;6.9;;;3.5;;
63690;SDS011;49837;57.280;27.070;2023-05-07T03:18:33;6.6;;;3.5;;
63690;SDS011;49837;57.280;27.070;2023-05-07T03:19:33;12.1;;;4.1;;
63690;SDS011;49837;57.280;27.070;2023-05-07T03:20:34;12.6;;;3.9;;
63690;SDS011;49837;57.280;27.070;2023-05-07T03:21:34;11.0;;;3.8;;
63690;SDS011;49837;57.280;27.070;2023-05-07T03:22:35;8.4;;;3.3;;
63690;SDS011;49837;57.280;27.070;2023-05-07T03:23:35;7.2;;;3.2;;
63690;SDS011;49837;57.280;27.070;2023-05-07T03:24:35;9.3;;;3.6;;
63690;SDS011;49837;57.280;27.070;2023-05-07T03:25:36;10.6;;;3.3;;
63690;SDS011;49837;57.280;27.070;2023-05-07T03:26:36;8.9;;;3.5;;
63690;SDS011;49837;57.280;27.070;2023-05-07T03:27:37;6.7;;;3.6;;
63690;SDS011;49837;57.280;27.070;2023-05-07T03:28:37;8.3;;;3.4;;
63690;SDS011;49837;57.280;27.070;2023-05-07T03:29:37;7.2;;;3.8;;
63690;SDS011;49837;57.280;27.070;2023-05-07T03:30:38;8.5;;;4.3;;
63690;SDS011;49837;57.280;27.070;2023-05-07T03:31:38;16.5;;;6.8;;
63690;SDS011;49837;57.280;27.070;2023-05-07T03:32:39;17.3;;;7.0;;
63690;SDS011;49837;57.280;27.070;2023-05-07T03:33:49;13.4;;;6.4;;
63690;SDS011;49837;57.280;27.070;2023-05-07T03:34:43;9.7;;;5.0;;
63690;SDS011;49837;57.280;27.070;2023-05-07T03:35:43;11.8;;;5.2;;
63690;SDS011;49837;57.280;27.070;2023-05-07T03:36:44;14.1;;;4.9;;
63690;SDS011;49837;57.280;27.070;2023-05-07T03:37:44;18.8;;;6.2;;
63690;SDS011;49837;57.280;27.070;2023-05-07T03:38:44;10.8;;;4.5;;
63690;SDS011;49837;57.280;27.070;2023-05-07T03:39:45;16.3;;;4.2;;
63690;SDS011;49837;57.280;27.070;2023-05-07T03:40:45;13.4;;;4.0;;
63690;SDS011;49837;57.280;27.070;2023-05-07T03:41:46;9.6;;;3.9;;
63690;SDS011;49837;57.280;27.070;2023-05-07T03:42:46;8.8;;;3.7;;
63690;SDS011;49837;57.280;27.070;2023-05-07T03:43:46;7.5;;;3.5;;
63690;SDS011;49837;57.280;27.070;2023-05-07T03:44:47;6.6;;;3.3;;
63690;SDS011;49837;57.280;27.070;2023-05-07T03:45:47;8.1;;;3.2;;
63690;SDS011;49837;57.280;27.070;2023-05-07T03:46:48;7.9;;;3.2;;
63690;SDS011;49837;57.280;27.070;2023-05-07T03:47:48;7.5;;;3.6;;
63690;SDS011;49837;57.280;27.070;2023-05-07T03:48:48;6.8;;;3.6;;
63690;SDS011;49837;57.280;27.070;2023-05-07T03:49:49;7.1;;;3.2;;
63690;SDS011;49837;57.280;27.070;2023-05-07T03:50:49;7.7;;;3.4;;
63690;SDS011;49837;57.280;27.070;2023-05-07T03:51:49;7.5;;;3.6;;
63690;SDS011;49837;57.280;27.070;2023-05-07T03:52:50;5.7;;;3.3;;
63690;SDS011;49837;57.280;27.070;2023-05-07T03:53:50;7.6;;;3.5;;
63690;SDS011;49837;57.280;27.070;2023-05-07T03:54:51;6.3;;;3.6;;
63690;SDS011;49837;57.280;27.070;2023-05-07T03:55:51;8.2;;;3.5;;
63690;SDS011;49837;57.280;27.070;2023-05-07T03:56:52;6.9;;;4.4;;
63690;SDS011;49837;57.280;27.070;2023-05-07T03:57:52;10.2;;;3.3;;
63690;SDS011;49837;57.280;27.070;2023-05-07T03:58:52;8.8;;;3.6;;
63690;SDS011;49837;57.280;27.070;2023-05-07T03:59:53;8.0;;;4.0;;
63690;SDS011;49837;57.280;27.070;2023-05-07T04:00:54;8.1;;;4.0;;
63690;SDS011;49837;57.280;27.070;2023-05-07T04:01:54;12.6;;;4.6;;
63690;SDS011;49837;57.280;27.070;2023-05-07T04:02:54;10.1;;;4.0;;
63690;SDS011;49837;57.280;27.070;2023-05-07T04:03:55;8.3;;;3.9;;
63690;SDS011;49837;57.280;27.070;2023-05-07T04:04:55;12.1;;;4.5;;
63690;SDS011;49837;57.280;27.070;2023-05-07T04:05:55;8.8;;;4.2;;
63690;SDS011;49837;57.280;27.070;2023-05-07T04:06:56;8.8;;;4.6;;
63690;SDS011;49837;57.280;27.070;2023-05-07T04:07:57;8.0;;;4.7;;
63690;SDS011;49837;57.280;27.070;2023-05-07T04:08:56;7.4;;;4.0;;
63690;SDS011;49837;57.280;27.070;2023-05-07T04:09:57;8.8;;;4.1;;
63690;SDS011;49837;57.280;27.070;2023-05-07T04:10:58;9.9;;;4.7;;
63690;SDS011;49837;57.280;27.070;2023-05-07T04:11:58;11.5;;;4.4;;
63690;SDS011;49837;57.280;27.070;2023-05-07T04:12:58;6.2;;;3.4;;
63690;SDS011;49837;57.280;27.070;2023-05-07T04:13:58;6.2;;;3.7;;
63690;SDS011;49837;57.280;27.070;2023-05-07T04:14:59;8.5;;;3.7;;
63690;SDS011;49837;57.280;27.070;2023-05-07T04:16:01;7.0;;;3.3;;
63690;SDS011;49837;57.280;27.070;2023-05-07T04:17:00;6.1;;;3.3;;
63690;SDS011;49837;57.280;27.070;2023-05-07T04:18:00;6.6;;;3.5;;
63690;SDS011;49837;57.280;27.070;2023-05-07T04:19:01;6.3;;;3.7;;
63690;SDS011;49837;57.280;27.070;2023-05-07T04:20:01;6.1;;;3.1;;
63690;SDS011;49837;57.280;27.070;2023-05-07T04:21:01;5.5;;;3.1;;
63690;SDS011;49837;57.280;27.070;2023-05-07T04:22:02;6.7;;;3.4;;
63690;SDS011;49837;57.280;27.070;2023-05-07T04:23:02;5.4;;;3.2;;
63690;SDS011;49837;57.280;27.070;2023-05-07T04:24:03;6.3;;;3.4;;
63690;SDS011;49837;57.280;27.070;2023-05-07T04:25:03;7.1;;;3.0;;
63690;SDS011;49837;57.280;27.070;2023-05-07T04:26:03;8.1;;;3.3;;
63690;SDS011;49837;57.280;27.070;2023-05-07T04:27:04;5.5;;;3.3;;
63690;SDS011;49837;57.280;27.070;2023-05-07T04:28:04;9.8;;;3.0;;
63690;SDS011;49837;57.280;27.070;2023-05-07T04:29:05;7.1;;;3.2;;
63690;SDS011;49837;57.280;27.070;2023-05-07T04:30:05;6.2;;;2.8;;
63690;SDS011;49837;57.280;27.070;2023-05-07T04:31:05;6.1;;;3.2;;
63690;SDS011;49837;57.280;27.070;2023-05-07T04:32:06;6.5;;;3.2;;
63690;SDS011;49837;57.280;27.070;2023-05-07T04:33:06;5.6;;;3.0;;
63690;SDS011;49837;57.280;27.070;2023-05-07T04:34:07;5.4;;;2.8;;
63690;SDS011;49837;57.280;27.070;2023-05-07T04:35:07;7.1;;;3.0;;
63690;SDS011;49837;57.280;27.070;2023-05-07T04:36:07;8.1;;;3.0;;
63690;SDS011;49837;57.280;27.070;2023-05-07T04:37:08;8.6;;;2.8;;
63690;SDS011;49837;57.280;27.070;2023-05-07T04:38:08;8.2;;;3.1;;
63690;SDS011;49837;57.280;27.070;2023-05-07T04:39:08;8.9;;;3.0;;
63690;SDS011;49837;57.280;27.070;2023-05-07T04:40:09;7.7;;;3.3;;
63690;SDS011;49837;57.280;27.070;2023-05-07T04:41:09;7.6;;;4.6;;
63690;SDS011;49837;57.280;27.070;2023-05-07T04:42:09;6.7;;;3.4;;
63690;SDS011;49837;57.280;27.070;2023-05-07T04:43:11;6.2;;;3.7;;
63690;SDS011;49837;57.280;27.070;2023-05-07T04:44:12;6.3;;;3.4;;
63690;SDS011;49837;57.280;27.070;2023-05-07T04:45:12;7.1;;;4.1;;
63690;SDS011;49837;57.280;27.070;2023-05-07T04:46:12;6.5;;;3.8;;
63690;SDS011;49837;57.280;27.070;2023-05-07T04:47:13;10.1;;;5.1;;
63690;SDS011;49837;57.280;27.070;2023-05-07T04:48:13;7.0;;;4.7;;
63690;SDS011;49837;57.280;27.070;2023-05-07T04:49:13;6.0;;;3.7;;
63690;SDS011;49837;57.280;27.070;2023-05-07T04:50:14;7.5;;;3.9;;
63690;SDS011;49837;57.280;27.070;2023-05-07T04:51:14;6.6;;;3.4;;
63690;SDS011;49837;57.280;27.070;2023-05-07T04:52:14;6.3;;;3.7;;
63690;SDS011;49837;57.280;27.070;2023-05-07T04:53:15;6.1;;;3.8;;
63690;SDS011;49837;57.280;27.070;2023-05-07T04:54:15;6.1;;;3.9;;
63690;SDS011;49837;57.280;27.070;2023-05-07T04:55:15;9.2;;;3.7;;
63690;SDS011;49837;57.280;27.070;2023-05-07T04:56:16;5.6;;;3.2;;
63690;SDS011;49837;57.280;27.070;2023-05-07T04:57:16;8.4;;;3.3;;
63690;SDS011;49837;57.280;27.070;2023-05-07T04:58:16;6.4;;;3.3;;
63690;SDS011;49837;57.280;27.070;2023-05-07T04:59:17;5.9;;;3.2;;
63690;SDS011;49837;57.280;27.070;2023-05-07T05:00:17;4.4;;;2.9;;
63690;SDS011;49837;57.280;27.070;2023-05-07T05:01:18;5.6;;;3.1;;
63690;SDS011;49837;57.280;27.070;2023-05-07T05:02:18;6.0;;;2.9;;
63690;SDS011;49837;57.280;27.070;2023-05-07T05:03:18;5.5;;;2.9;;
63690;SDS011;49837;57.280;27.070;2023-05-07T05:04:18;6.6;;;2.8;;
63690;SDS011;49837;57.280;27.070;2023-05-07T05:05:19;4.6;;;3.0;;
63690;SDS011;49837;57.280;27.070;2023-05-07T05:06:19;6.5;;;3.0;;
63690;SDS011;49837;57.280;27.070;2023-05-07T05:07:19;5.2;;;3.0;;
63690;SDS011;49837;57.280;27.070;2023-05-07T05:08:20;5.2;;;3.0;;
63690;SDS011;49837;57.280;27.070;2023-05-07T05:09:20;4.0;;;2.6;;
63690;SDS011;49837;57.280;27.070;2023-05-07T05:10:21;5.2;;;2.8;;
63690;SDS011;49837;57.280;27.070;2023-05-07T05:11:21;6.1;;;2.6;;
63690;SDS011;49837;57.280;27.070;2023-05-07T05:12:21;5.8;;;2.9;;
63690;SDS011;49837;57.280;27.070;2023-05-07T05:13:21;5.5;;;2.2;;
63690;SDS011;49837;57.280;27.070;2023-05-07T05:14:22;4.9;;;2.7;;
63690;SDS011;49837;57.280;27.070;2023-05-07T05:15:22;6.2;;;3.6;;
63690;SDS011;49837;57.280;27.070;2023-05-07T05:16:22;6.5;;;3.7;;
63690;SDS011;49837;57.280;27.070;2023-05-07T05:17:23;7.2;;;3.5;;
63690;SDS011;49837;57.280;27.070;2023-05-07T05:18:23;8.4;;;3.7;;
63690;SDS011;49837;57.280;27.070;2023-05-07T05:19:24;8.7;;;3.8;;
63690;SDS011;49837;57.280;27.070;2023-05-07T05:20:24;7.6;;;3.4;;
63690;SDS011;49837;57.280;27.070;2023-05-07T05:21:24;7.6;;;3.7;;
63690;SDS011;49837;57.280;27.070;2023-05-07T05:22:24;8.2;;;3.4;;
63690;SDS011;49837;57.280;27.070;2023-05-07T05:23:25;7.5;;;3.6;;
63690;SDS011;49837;57.280;27.070;2023-05-07T05:24:25;6.3;;;3.7;;
63690;SDS011;49837;57.280;27.070;2023-05-07T05:25:25;9.6;;;4.0;;
63690;SDS011;49837;57.280;27.070;2023-05-07T05:26:26;11.4;;;4.5;;
63690;SDS011;49837;57.280;27.070;2023-05-07T05:27:26;14.0;;;6.0;;
63690;SDS011;49837;57.280;27.070;2023-05-07T05:28:26;13.5;;;6.3;;
63690;SDS011;49837;57.280;27.070;2023-05-07T05:29:27;13.2;;;4.9;;
63690;SDS011;49837;57.280;27.070;2023-05-07T05:30:27;8.2;;;4.5;;
63690;SDS011;49837;57.280;27.070;2023-05-07T05:31:28;10.1;;;5.0;;
63690;SDS011;49837;57.280;27.070;2023-05-07T05:32:28;10.8;;;5.0;;
63690;SDS011;49837;57.280;27.070;2023-05-07T05:33:28;7.5;;;3.8;;
63690;SDS011;49837;57.280;27.070;2023-05-07T05:34:29;6.9;;;3.8;;
63690;SDS011;49837;57.280;27.070;2023-05-07T05:35:29;7.6;;;3.8;;
63690;SDS011;49837;57.280;27.070;2023-05-07T05:36:30;8.1;;;3.8;;
63690;SDS011;49837;57.280;27.070;2023-05-07T05:37:30;7.4;;;4.2;;
63690;SDS011;49837;57.280;27.070;2023-05-07T05:38:31;7.1;;;3.6;;
63690;SDS011;49837;57.280;27.070;2023-05-07T05:39:31;5.0;;;2.7;;
63690;SDS011;49837;57.280;27.070;2023-05-07T05:40:31;6.0;;;3.0;;
63690;SDS011;49837;57.280;27.070;2023-05-07T05:41:32;6.8;;;3.5;;
63690;SDS011;49837;57.280;27.070;2023-05-07T05:42:32;14.6;;;6.3;;
63690;SDS011;49837;57.280;27.070;2023-05-07T05:43:32;19.2;;;7.7;;
63690;SDS011;49837;57.280;27.070;2023-05-07T05:44:33;11.3;;;5.7;;
63690;SDS011;49837;57.280;27.070;2023-05-07T05:45:33;8.5;;;3.2;;
63690;SDS011;49837;57.280;27.070;2023-05-07T05:46:33;6.6;;;2.9;;
63690;SDS011;49837;57.280;27.070;2023-05-07T05:47:34;5.8;;;3.2;;
63690;SDS011;49837;57.280;27.070;2023-05-07T05:48:34;7.9;;;4.5;;
63690;SDS011;49837;57.280;27.070;2023-05-07T05:49:34;7.2;;;3.5;;
63690;SDS011;49837;57.280;27.070;2023-05-07T05:50:35;9.2;;;3.1;;
63690;SDS011;49837;57.280;27.070;2023-05-07T05:51:35;6.0;;;3.2;;
63690;SDS011;49837;57.280;27.070;2023-05-07T05:52:35;5.2;;;2.3;;
63690;SDS011;49837;57.280;27.070;2023-05-07T05:53:36;3.9;;;2.1;;
63690;SDS011;49837;57.280;27.070;2023-05-07T05:54:36;5.3;;;2.5;;
63690;SDS011;49837;57.280;27.070;2023-05-07T05:55:37;7.2;;;3.0;;
63690;SDS011;49837;57.280;27.070;2023-05-07T05:56:37;12.1;;;4.2;;
63690;SDS011;49837;57.280;27.070;2023-05-07T05:57:37;7.5;;;3.3;;
63690;SDS011;49837;57.280;27.070;2023-05-07T05:58:38;7.8;;;4.1;;
63690;SDS011;49837;57.280;27.070;2023-05-07T05:59:38;11.0;;;3.2;;
63690;SDS011;49837;57.280;27.070;2023-05-07T06:00:38;7.8;;;3.3;;
63690;SDS011;49837;57.280;27.070;2023-05-07T06:01:39;6.9;;;3.1;;
63690;SDS011;49837;57.280;27.070;2023-05-07T06:02:39;9.4;;;3.5;;
63690;SDS011;49837;57.280;27.070;2023-05-07T06:03:39;3.1;;;1.8;;
63690;SDS011;49837;57.280;27.070;2023-05-07T06:04:40;3.3;;;1.9;;
63690;SDS011;49837;57.280;27.070;2023-05-07T06:05:40;4.9;;;2.1;;
63690;SDS011;49837;57.280;27.070;2023-05-07T06:06:40;6.4;;;2.4;;
63690;SDS011;49837;57.280;27.070;2023-05-07T06:07:41;4.3;;;2.6;;
63690;SDS011;49837;57.280;27.070;2023-05-07T06:08:41;6.5;;;3.0;;
63690;SDS011;49837;57.280;27.070;2023-05-07T06:09:42;6.5;;;2.7;;